• Join FlightAware (Why Join?)
  • Login
  • US Flag 
06:53PM EDT


 

Airport Tracker/Info


-or-


 

Live Flight TrackerFlight Track Log ✈ SWA378 ✈ 06-May-2013 ✈ KSJC - KLAX

Flight Track Log - Related Links

Times and Time Zones

All times are in EDT time to prevent confusion due to time zone crossing. See the SWA378 flight status page for this flight to view local times or setup timezone preferences in your user account.

Time Position Orientation Groundspeed Altitude Reporting Facility
EDT Latitude Longitude Course Direction KTS MPH feet Rate Location/Type
12:01PM 37.2833 -121.8500 139° Southeast 249 287 5,400  Level Northern Cal TRACON
12:02PM 37.2322 -121.7781 132° Southeast 253 291 9,900 2,760 Climbing Oakland Center
12:03PM 37.1653 -121.7003 137° Southeast 329 379 11,600 2,940 Climbing Oakland Center
12:05PM 37.0810 -121.5140 138° Southeast  Level FlightAware Approximate
12:06PM 36.8450 -121.3692 139° Southeast  Level Estimated
12:06PM 36.9231 -121.4208 138° Southeast 393 452 21,600  Level Los Angeles Center
12:07PM 36.8375 -121.3228 137° Southeast 405 466 24,100 2,100 Climbing Los Angeles Center
12:08PM 36.7469 -121.2200 138° Southeast 423 487 26,000 1,980 Climbing Los Angeles Center
12:09PM 36.6369 -121.0914 137° Southeast 447 514 28,400 1,860 Climbing Oakland Center
12:10PM 36.5431 -120.9844 138° Southeast 455 524 30,100 1,920 Climbing Oakland Center
12:12PM 36.3522 -120.7675 137° Southeast 462 532 34,300 1,620 Climbing Los Angeles Center
12:13PM 36.2575 -120.6617 138° Southeast 460 529 35,000 180 Climbing Los Angeles Center
12:15PM 36.0667 -120.4469 138° Southeast 462 532 35,000  Level Los Angeles Center
12:16PM 35.9719 -120.3389 137° Southeast 443 510 35,000  Level Oakland Center
12:17PM 35.8531 -120.2103 139° Southeast 466 536 35,000  Level Oakland Center
12:18PM 35.7564 -120.1008 137° Southeast 470 541 35,000 -540 Level Oakland Center
12:20PM 35.6504 -119.9837 141° Southeast  Level FlightAware Approximate
12:20PM 35.5500 -119.8956 141° Southeast 480 552 33,500  Level Oakland Center
12:22PM 35.3328 -119.7086 145° Southeast 475 547 31,500 -960 Descending Los Angeles Center
12:23PM 35.2247 -119.6153 145° Southeast 474 545 30,600 -1,020 Descending Los Angeles Center
12:24PM 35.1156 -119.5208 145° Southeast 477 549 29,500 -1,260 Descending Los Angeles Center
12:25PM 34.9861 -119.4111 145° Southeast 472 543 28,000 -1,860 Descending Los Angeles Center
12:26PM 34.8808 -119.3222 145° Southeast 463 533 25,700 -2,760 Descending Los Angeles Center
12:27PM 34.7794 -119.2389 146° Southeast 446 513 22,300 -3,000 Descending Los Angeles Center
12:28PM 34.6803 -119.1547 145° Southeast 438 504 19,500 -2,700 Descending Los Angeles Center
12:30PM 34.5774 -119.0728 146° Southeast  Level FlightAware Approximate
12:30PM 34.4822 -118.9894 146° Southeast 389 448 14,100  Level Los Angeles Center
12:33PM 34.3630 -118.8797 140° Southeast  Level FlightAware Approximate
12:34PM 34.2369 -118.8639 140° Southeast 287 330 10,500  Level Los Angeles Center
12:36PM 34.0781 -118.8475 175° South 249 287 8,300 -1,140 Descending Los Angeles Center
12:37PM 34.0161 -118.8561 187° South 227 261 7,000 -660 Descending Los Angeles Center
12:38PM 33.9597 -118.8731 194° South 212 244 7,000 -780 Level Los Angeles Center
12:40PM 33.9178 -118.7472 112° Southeast 190 219 4,600 -960 Descending Los Angeles Center
12:42PM 33.9308 -118.6122 83° East 195 224 3,100 -840 Descending Los Angeles Center
12:43PM 33.9372 -118.5503 83° East 186 214 2,000 -1,080 Descending Los Angeles Center
12:45PM 33.9333 -118.4000 104° East  Level FlightAware Approximate
12:52PM 33.9425 -118.4081 104° East  Level Estimated
12:53PM 33.9425 -118.4081 104° East  Level Estimated
12:54PM 33.9425 -118.4081 104° East  Level Estimated
12:55PM 33.9425 -118.4081 104° East  Level Estimated